Transatlantic — WDC2769 — position and weather

sailwx.info

Track history (hours):
 
Tides and Currents Weather Stations Pressure Air Temp Water Temp Dewpoint Dewpoint Depression Visibility Wind Speed Wind Dir Waves Ship Positions

Transatlantic

More information available from US FCC via Universal Licensing System and Coast Guard Vessel Documentation Center.

Last reported at 2014-Aug-27 08:14 UTC. Time now 2014-Aug-30 14:31 UTC.
Position N 33°19' E 032°19'.

Length 101 m; draft 7 m.

Type: Cargo ship. MMSI: 366997520.

Date/timePositionNaut miles runAvg speedWind from/ knotsBaromVisibWave heightAir tempDewpointWater temp
2014-Aug-27 08:14N 33°19' E 032°19'1412.6
2014-Aug-27 07:09N 33°28' E 032°06'812.5
2014-Aug-27 06:33N 33°32' E 031°59'1212.4
2014-Aug-27 05:33N 33°39' E 031°46'10012.4
2014-Aug-26 21:28N 34°32' E 030°03'8712.6
2014-Aug-26 14:33N 35°16' E 028°32'6612.1
2014-Aug-26 09:09N 35°54' E 027°26'2012.2
2014-Aug-26 07:31N 36°08' E 027°09'1212.2
2014-Aug-26 06:33N 36°16' E 026°58'1212.0
2014-Aug-26 05:33N 36°26' E 026°49'1312.3
2014-Aug-26 04:31N 36°36' E 026°39'1212.1
2014-Aug-26 03:33N 36°45' E 026°30'1212.4
2014-Aug-26 02:34N 36°53' E 026°19'1312.7
2014-Aug-26 01:33N 37°01' E 026°06'1211.5
2014-Aug-26 00:33N 37°09' E 025°56'1211.7
2014-Aug-25 23:33N 37°15' E 025°43'1211.5
2014-Aug-25 22:33N 37°15' E 025°29'1111.3
2014-Aug-25 21:33N 37°17' E 025°15'1110.6
2014-Aug-25 20:33N 37°23' E 025°04'5 4.7
2014-Aug-25 19:31N 37°25' E 024°58'0 0.0
2014-Aug-25 18:31N 37°25' E 024°58'0 0.0
2014-Aug-25 17:31N 37°25' E 024°58'0 0.0
2014-Aug-25 16:32N 37°25' E 024°58'6 5.7
2014-Aug-25 15:33N 37°28' E 025°04'1111.3
2014-Aug-25 14:33N 37°33' E 025°17'1313.2
2014-Aug-25 13:33N 37°46' E 025°22'1413.7
2014-Aug-25 12:32N 37°59' E 025°27'1212.5
2014-Aug-25 11:33N 38°11' E 025°24'1211.6
2014-Aug-25 10:32N 38°22' E 025°18'1812.3
2014-Aug-25 09:06N 38°39' E 025°16'2112.1
2014-Aug-25 07:22N 39°00' E 025°15'5312.6
2014-Aug-25 03:13N 39°47' E 025°46'12411.6
2014-Aug-24 16:33N 40°50' E 028°05'1110.9
2014-Aug-24 15:32N 40°52' E 028°20'1010.6
2014-Aug-24 14:33N 40°53' E 028°33'12 9.7
2014-Aug-24 13:21N 40°55' E 028°49'1012.2
2014-Aug-24 12:33N 41°01' E 028°60'  
Track history (hours):
 
Tides and Currents Weather Stations Pressure Air Temp Water Temp Dewpoint Dewpoint Depression Visibility Wind Speed Wind Dir Waves Ship Positions

Transatlantic

More information available from US FCC via Universal Licensing System and Coast Guard Vessel Documentation Center.

Last reported at 2014-Aug-27 08:14 UTC. Time now 2014-Aug-30 14:31 UTC.
Position N 33°19' E 032°19'.

Length 101 m; draft 7 m.

Type: Cargo ship. MMSI: 366997520.

Date/timePositionNaut miles runAvg speedWind from/ knotsBaromVisibWave heightAir tempDewpointWater temp
2014-Aug-27 08:14N 33°19' E 032°19'1412.6
2014-Aug-27 07:09N 33°28' E 032°06'812.5
2014-Aug-27 06:33N 33°32' E 031°59'1212.4
2014-Aug-27 05:33N 33°39' E 031°46'10012.4
2014-Aug-26 21:28N 34°32' E 030°03'8712.6
2014-Aug-26 14:33N 35°16' E 028°32'6612.1
2014-Aug-26 09:09N 35°54' E 027°26'2012.2
2014-Aug-26 07:31N 36°08' E 027°09'1212.2
2014-Aug-26 06:33N 36°16' E 026°58'1212.0
2014-Aug-26 05:33N 36°26' E 026°49'1312.3
2014-Aug-26 04:31N 36°36' E 026°39'1212.1
2014-Aug-26 03:33N 36°45' E 026°30'1212.4
2014-Aug-26 02:34N 36°53' E 026°19'1312.7
2014-Aug-26 01:33N 37°01' E 026°06'1211.5
2014-Aug-26 00:33N 37°09' E 025°56'1211.7
2014-Aug-25 23:33N 37°15' E 025°43'1211.5
2014-Aug-25 22:33N 37°15' E 025°29'1111.3
2014-Aug-25 21:33N 37°17' E 025°15'1110.6
2014-Aug-25 20:33N 37°23' E 025°04'5 4.7
2014-Aug-25 19:31N 37°25' E 024°58'0 0.0
2014-Aug-25 18:31N 37°25' E 024°58'0 0.0
2014-Aug-25 17:31N 37°25' E 024°58'0 0.0
2014-Aug-25 16:32N 37°25' E 024°58'6 5.7
2014-Aug-25 15:33N 37°28' E 025°04'1111.3
2014-Aug-25 14:33N 37°33' E 025°17'1313.2
2014-Aug-25 13:33N 37°46' E 025°22'1413.7
2014-Aug-25 12:32N 37°59' E 025°27'1212.5
2014-Aug-25 11:33N 38°11' E 025°24'1211.6
2014-Aug-25 10:32N 38°22' E 025°18'1812.3
2014-Aug-25 09:06N 38°39' E 025°16'2112.1
2014-Aug-25 07:22N 39°00' E 025°15'5312.6
2014-Aug-25 03:13N 39°47' E 025°46'12411.6
2014-Aug-24 16:33N 40°50' E 028°05'1110.9
2014-Aug-24 15:32N 40°52' E 028°20'1010.6
2014-Aug-24 14:33N 40°53' E 028°33'12 9.7
2014-Aug-24 13:21N 40°55' E 028°49'1012.2
2014-Aug-24 12:33N 41°01' E 028°60'  

Dump ship's entire track history